Time;durP1;ratioP1;P1;durP2;ratioP2;P2;SDS_P1;SDS_P2;PMS_P1;PMS_P2;Temp;Humidity;BMP_temperature;BMP_pressure;BME280_temperature;BME280_humidity;BME280_pressure;Samples;Min_cycle;Max_cycle;Signal;HPM_P1;HPM_P2
2022/01/19 00:00:37;;;;;;;2.53;1.02;;;;;;;16.16;26.64;99297.31;5130934;28;20034;-61
2022/01/19 00:03:03;;;;;;;2.03;0.95;;;;;;;16.16;26.97;99283.97;5130624;28;20020;-60
2022/01/19 00:05:29;;;;;;;1.20;0.80;;;;;;;16.16;26.92;99281.31;5130761;28;20019;-61
2022/01/19 00:07:54;;;;;;;1.27;0.70;;;;;;;16.16;26.89;99288.50;5130314;28;20053;-60
2022/01/19 00:10:27;;;;;;;1.10;0.55;;;;;;;16.19;26.19;99290.81;5130528;28;20019;-60
2022/01/19 00:12:54;;;;;;;2.72;0.90;;;;;;;16.18;26.77;99275.78;5130663;28;20039;-61
2022/01/19 00:15:20;;;;;;;1.65;0.63;;;;;;;16.20;26.69;99270.31;5130750;28;20011;-61
2022/01/19 00:17:46;;;;;;;2.10;1.35;;;;;;;16.19;27.07;99271.31;5129540;28;20299;-61
2022/01/19 00:20:11;;;;;;;1.70;0.75;;;;;;;16.19;26.39;99263.28;5130091;28;20026;-60
2022/01/19 00:22:37;;;;;;;2.58;0.88;;;;;;;16.19;26.83;99265.97;5130353;28;20192;-61
2022/01/19 00:25:05;;;;;;;1.63;0.80;;;;;;;16.19;26.69;99265.97;5129856;28;20085;-62
2022/01/19 00:27:30;;;;;;;1.20;0.77;;;;;;;16.19;26.88;99260.63;5129475;28;20137;-62
2022/01/19 00:29:56;;;;;;;1.30;0.70;;;;;;;16.19;26.79;99261.44;5130112;28;20015;-61
2022/01/19 00:32:24;;;;;;;0.93;0.70;;;;;;;16.20;26.83;99267.63;5130501;28;20155;-60
2022/01/19 00:34:49;;;;;;;1.80;1.08;;;;;;;16.21;26.53;99275.47;5130251;28;20016;-63
2022/01/19 00:37:15;;;;;;;1.70;0.80;;;;;;;16.21;26.66;99269.31;5129284;28;20072;-61
2022/01/19 00:39:40;;;;;;;1.75;1.00;;;;;;;16.20;26.44;99259.63;5130253;28;20224;-60
2022/01/19 00:42:06;;;;;;;1.98;1.10;;;;;;;16.19;26.43;99264.13;5130058;28;20026;-61
2022/01/19 00:44:31;;;;;;;1.80;1.00;;;;;;;16.16;26.40;99261.78;5129928;28;20118;-61
2022/01/19 00:46:57;;;;;;;4.38;1.10;;;;;;;16.17;26.31;99258.94;5129787;28;20020;-62
2022/01/19 00:49:22;;;;;;;1.48;0.60;;;;;;;16.15;27.05;99260.94;5129469;28;20087;-61
2022/01/19 00:51:48;;;;;;;2.00;0.82;;;;;;;16.21;26.62;99269.31;5129570;28;20015;-60
2022/01/19 00:54:13;;;;;;;1.88;1.05;;;;;;;16.22;26.28;99273.66;5129786;28;20019;-61
2022/01/19 00:56:39;;;;;;;1.58;0.90;;;;;;;16.21;26.42;99266.63;5129967;28;20007;-61
2022/01/19 00:59:04;;;;;;;1.83;1.08;;;;;;;16.17;26.38;99258.94;5129720;28;20224;-61
2022/01/19 01:01:30;;;;;;;1.88;1.05;;;;;;;16.16;26.15;99259.94;5129794;28;20016;-61
2022/01/19 01:03:55;;;;;;;2.67;0.70;;;;;;;16.15;26.48;99254.78;5129513;28;20038;-62
2022/01/19 01:06:21;;;;;;;3.42;0.98;;;;;;;16.13;26.65;99257.59;5128603;28;20016;-61
2022/01/19 01:08:46;;;;;;;2.53;0.68;;;;;;;16.14;26.65;99258.44;5129461;28;20011;-62
2022/01/19 01:11:12;;;;;;;1.45;0.90;;;;;;;16.13;26.74;99252.25;5129369;28;20072;-63
2022/01/19 01:16:38;;;;;;;2.22;0.90;;;;;;;16.13;26.19;99257.59;5122168;28;20015;-62
2022/01/19 01:19:06;;;;;;;2.35;0.93;;;;;;;16.12;26.47;99255.94;5117172;28;20051;-61
2022/01/19 01:21:32;;;;;;;1.52;0.77;;;;;;;16.14;26.40;99259.28;5129436;28;20020;-61
2022/01/19 01:23:58;;;;;;;1.25;0.50;;;;;;;16.13;26.47;99259.44;5129164;28;20027;-60
2022/01/19 01:26:24;;;;;;;4.00;1.10;;;;;;;16.12;26.56;99260.44;5129053;28;20035;-61
2022/01/19 01:28:49;;;;;;;1.65;0.75;;;;;;;16.14;26.50;99263.78;5111088;28;20022;-61
2022/01/19 01:31:15;;;;;;;1.85;0.80;;;;;;;16.13;26.59;99262.94;5129445;28;20059;-61
2022/01/19 01:33:41;;;;;;;1.73;0.80;;;;;;;16.12;26.17;99265.78;5129059;28;20124;-61
2022/01/19 01:36:08;;;;;;;1.63;0.70;;;;;;;16.10;26.52;99260.59;5128829;28;20292;-60
2022/01/19 01:38:34;;;;;;;1.23;0.80;;;;;;;16.10;26.29;99254.44;5128837;28;20052;-60
2022/01/19 01:41:00;;;;;;;1.10;0.70;;;;;;;16.10;26.34;99257.91;5129081;28;20016;-61
2022/01/19 01:43:25;;;;;;;1.42;0.80;;;;;;;16.09;26.53;99256.28;5127948;28;20031;-62
2022/01/19 01:45:56;;;;;;;1.42;0.63;;;;;;;16.09;26.56;99264.28;5128662;28;20026;-60
2022/01/19 01:48:24;;;;;;;1.67;0.77;;;;;;;16.09;26.28;99264.28;5128902;28;20079;-61
2022/01/19 01:53:36;;;;;;;1.17;0.68;;;;;;;16.10;26.38;99263.25;5128745;28;20014;-61
2022/01/19 01:56:07;;;;;;;1.58;0.70;;;;;;;16.12;26.61;99263.13;5128559;28;20031;-62
2022/01/19 01:58:45;;;;;;;1.60;0.80;;;;;;;16.09;26.07;99250.94;5128639;28;20076;-60
2022/01/19 02:01:11;;;;;;;2.20;0.85;;;;;;;16.14;26.42;99247.78;5128584;28;20011;-60
2022/01/19 02:03:43;;;;;;;2.22;0.82;;;;;;;16.16;26.44;99245.78;5127886;28;20236;-60
2022/01/19 02:08:50;;;;;;;3.30;0.90;;;;;;;16.17;26.40;99260.81;5128246;28;20018;-61
2022/01/19 02:21:58;;;;;;;1.65;1.10;;;;;;;16.16;26.27;99262.63;5128249;28;20014;-60
2022/01/19 02:24:29;;;;;;;1.60;0.80;;;;;;;16.18;26.71;99270.44;5127219;28;20077;-60
2022/01/19 02:27:06;;;;;;;1.55;0.95;;;;;;;16.20;26.56;99276.47;5127601;28;20235;-62
2022/01/19 02:42:39;;;;;;;3.75;1.15;;;;;;;16.22;26.29;99287.81;5127613;28;20141;-61
2022/01/19 02:49:57;;;;;;;1.38;0.95;;;;;;;16.20;26.05;99297.00;5127976;28;20030;-61
2022/01/19 02:52:24;;;;;;;2.25;0.90;;;;;;;16.17;26.38;99303.50;5127912;28;20152;-62
2022/01/19 02:54:51;;;;;;;2.10;0.90;;;;;;;16.12;26.41;99295.97;5124671;28;20077;-62
2022/01/19 02:57:23;;;;;;;5.45;0.95;;;;;;;16.12;26.49;99301.31;5127901;28;20015;-61
2022/01/19 03:10:27;;;;;;;3.63;0.88;;;;;;;16.04;26.90;99306.63;5127137;28;20018;-61
2022/01/19 03:12:52;;;;;;;2.15;0.77;;;;;;;16.02;26.32;99306.81;5127399;28;20032;-61
2022/01/19 03:15:18;;;;;;;2.88;0.93;;;;;;;16.03;26.61;99299.63;5127597;28;20023;-61
2022/01/19 03:17:43;;;;;;;2.03;1.02;;;;;;;16.04;26.51;99295.09;5127650;28;20034;-60
2022/01/19 03:20:10;;;;;;;2.22;0.80;;;;;;;16.02;26.66;99288.13;5107308;28;20016;-61
2022/01/19 03:25:36;;;;;;;2.72;0.80;;;;;;;15.96;26.25;99288.75;5110000;28;20027;-60
2022/01/19 03:28:02;;;;;;;1.80;1.17;;;;;;;15.94;26.27;99289.94;5127529;28;20221;-61
2022/01/19 03:30:27;;;;;;;1.77;0.88;;;;;;;15.91;26.39;99296.41;5129691;28;20016;-61
2022/01/19 03:32:53;;;;;;;1.52;0.77;;;;;;;15.90;26.34;99288.56;5115294;28;20030;-60
2022/01/19 03:35:18;;;;;;;0.82;0.65;;;;;;;15.88;26.19;99293.22;5111082;28;20033;-61
2022/01/19 03:37:44;;;;;;;0.98;0.65;;;;;;;15.88;26.82;99279.88;5110960;28;20250;-60
2022/01/19 03:40:10;;;;;;;2.13;0.90;;;;;;;15.85;26.75;99281.88;5110941;28;20016;-61
2022/01/19 03:42:36;;;;;;;2.78;0.85;;;;;;;15.81;26.69;99279.66;5110666;28;20148;-61
2022/01/19 03:45:03;;;;;;;1.25;0.70;;;;;;;15.81;26.42;99279.66;5110859;28;20236;-61
2022/01/19 03:47:36;;;;;;;1.90;0.73;;;;;;;15.79;26.80;99271.00;5092978;28;20232;-61
2022/01/19 03:50:03;;;;;;;1.17;0.60;;;;;;;15.80;26.39;99270.00;5111006;28;20140;-60
2022/01/19 03:52:28;;;;;;;1.00;0.73;;;;;;;15.78;26.91;99272.84;5110690;28;20032;-60
2022/01/19 03:54:54;;;;;;;1.25;0.82;;;;;;;15.77;26.57;99275.66;5110551;28;20020;-61
2022/01/19 03:57:20;;;;;;;1.75;1.00;;;;;;;15.76;26.61;99282.81;5115227;28;20223;-61
2022/01/19 03:59:45;;;;;;;1.60;0.52;;;;;;;15.75;26.64;99282.97;5130968;28;20038;-62
2022/01/19 04:02:11;;;;;;;2.25;0.88;;;;;;;15.75;26.57;99286.47;5130881;28;20079;-62
2022/01/19 04:04:42;;;;;;;2.38;0.82;;;;;;;15.78;26.56;99291.50;5130758;28;20224;-61
2022/01/19 04:09:35;;;;;;;1.50;0.90;;;;;;;15.75;26.42;99294.50;5131190;28;20042;-61
2022/01/19 04:12:01;;;;;;;0.93;0.52;;;;;;;15.75;27.15;99296.31;5130686;28;20046;-62
2022/01/19 04:14:26;;;;;;;1.83;0.95;;;;;;;15.76;26.72;99298.81;5130690;28;20221;-61
2022/01/19 04:16:57;;;;;;;2.65;0.63;;;;;;;15.77;26.68;99302.31;5130652;28;20068;-61
2022/01/19 04:21:50;;;;;;;1.30;0.75;;;;;;;15.66;27.08;99298.94;5130533;28;19895;-62
2022/01/19 04:24:17;;;;;;;1.10;0.75;;;;;;;15.68;26.49;99304.09;5130417;28;20090;-61
2022/01/19 04:26:44;;;;;;;1.55;0.50;;;;;;;15.66;27.03;99298.13;5130552;28;20011;-61
2022/01/19 04:29:09;;;;;;;1.88;0.80;;;;;;;15.65;26.82;99299.13;5130708;28;20016;-62
2022/01/19 04:31:35;;;;;;;1.10;0.60;;;;;;;15.64;26.88;99305.44;5130294;28;20032;-61
2022/01/19 04:34:04;;;;;;;2.75;0.90;;;;;;;15.63;27.16;99317.94;5130295;28;20016;-61
2022/01/19 04:39:24;;;;;;;1.55;0.73;;;;;;;15.66;27.00;99324.81;5130200;28;20217;-61
2022/01/19 05:04:19;;;;;;;0.70;0.50;;;;;;;15.60;26.73;99312.09;5125006;28;20023;-61
2022/01/19 05:06:47;;;;;;;;;;;;;;;15.51;27.42;99304.03;5122703;28;20031;-61
2022/01/19 05:14:41;;;;;;;3.15;0.90;;;;;;;15.51;26.80;99298.69;5108970;28;20007;-62
2022/01/19 05:17:07;;;;;;;2.35;0.90;;;;;;;15.51;26.94;99288.03;5109005;28;20125;-62
2022/01/19 05:19:32;;;;;;;2.40;1.02;;;;;;;15.50;26.94;99293.53;5109032;28;20024;-63
2022/01/19 05:21:58;;;;;;;2.90;0.80;;;;;;;15.49;26.92;99295.38;5120438;28;20022;-62
2022/01/19 05:24:23;;;;;;;0.95;0.70;;;;;;;15.48;26.98;99283.03;5129307;28;20133;-62
2022/01/19 05:26:51;;;;;;;1.00;0.88;;;;;;;15.51;27.10;99280.03;5129270;28;20068;-62
2022/01/19 05:29:17;;;;;;;2.45;1.10;;;;;;;15.51;26.70;99282.69;5129309;28;20019;-62
2022/01/19 05:31:42;;;;;;;1.80;1.00;;;;;;;15.52;26.68;99286.22;5122979;28;20096;-62
2022/01/19 05:34:08;;;;;;;2.70;1.00;;;;;;;15.52;27.18;99267.56;5108617;28;20180;-62
2022/01/19 05:36:33;;;;;;;2.47;1.05;;;;;;;15.51;26.74;99263.22;5108669;28;20137;-63
2022/01/19 05:39:03;;;;;;;1.70;1.10;;;;;;;15.51;26.95;99271.22;5108536;28;20012;-62
2022/01/19 05:41:28;;;;;;;1.55;1.00;;;;;;;15.50;26.93;99265.06;5091516;28;20016;-62
2022/01/19 05:43:54;;;;;;;1.95;1.05;;;;;;;15.51;26.69;99265.88;5108326;28;20032;-63
2022/01/19 05:46:21;;;;;;;2.08;0.90;;;;;;;15.50;27.33;99261.53;5108501;28;20026;-63
2022/01/19 05:48:46;;;;;;;2.22;1.40;;;;;;;15.49;27.01;99271.38;5108417;28;20057;-63
2022/01/19 05:51:12;;;;;;;2.53;1.38;;;;;;;15.48;26.92;99267.03;5108433;28;20015;-62
2022/01/19 05:53:37;;;;;;;1.80;0.98;;;;;;;15.48;26.60;99275.03;5108727;28;20079;-63
2022/01/19 05:56:03;;;;;;;1.90;1.20;;;;;;;15.49;26.78;99276.72;5127448;28;20273;-63
2022/01/19 05:58:29;;;;;;;1.85;0.80;;;;;;;15.48;27.19;99269.72;5128549;28;20030;-62
2022/01/19 06:00:54;;;;;;;2.08;0.80;;;;;;;15.46;26.72;99270.84;5128627;28;20046;-62
2022/01/19 06:03:20;;;;;;;2.05;1.17;;;;;;;15.47;26.68;99281.38;5128445;28;20079;-63
2022/01/19 06:05:45;;;;;;;2.03;1.08;;;;;;;15.48;26.74;99271.53;5124348;28;20035;-62
2022/01/19 06:09:00;;;;;;;1.98;0.98;;;;;;;15.48;26.58;99280.38;5119347;28;20050;-62
2022/01/19 06:10:57;;;;;;;1.98;1.00;;;;;;;15.49;26.91;99273.19;5113832;28;20039;-61
2022/01/19 06:13:24;;;;;;;2.00;1.00;;;;;;;15.52;26.60;99267.56;5128195;28;20053;-61
2022/01/19 06:15:50;;;;;;;1.83;0.90;;;;;;;15.55;26.58;99264.56;5128469;28;20024;-61
2022/01/19 06:18:17;;;;;;;1.83;0.85;;;;;;;15.61;26.88;99263.09;5128245;28;20024;-62
2022/01/19 06:20:44;;;;;;;1.70;1.00;;;;;;;15.65;27.48;99269.78;5128415;28;20016;-62
2022/01/19 06:23:10;;;;;;;1.00;0.82;;;;;;;15.69;26.95;99257.78;5127922;28;20035;-61
2022/01/19 06:25:36;;;;;;;1.20;1.10;;;;;;;15.74;26.79;99268.81;5128240;28;20167;-62
2022/01/19 06:28:02;;;;;;;2.13;0.90;;;;;;;15.78;27.00;99264.84;5128140;28;20026;-61
2022/01/19 06:30:28;;;;;;;1.10;1.00;;;;;;;15.77;26.81;99265.81;5128267;28;20023;-62
2022/01/19 06:32:54;;;;;;;1.70;1.13;;;;;;;15.76;26.66;99260.63;5111848;28;20058;-62
2022/01/19 06:35:21;;;;;;;3.25;1.10;;;;;;;15.75;26.71;99253.63;5107775;28;20030;-61
2022/01/19 06:37:46;;;;;;;1.83;1.15;;;;;;;15.76;26.86;99266.81;5107716;28;20043;-62
2022/01/19 06:40:14;;;;;;;2.10;1.02;;;;;;;15.77;26.53;99267.63;5107665;28;20083;-62
2022/01/19 06:42:41;;;;;;;2.42;1.20;;;;;;;15.72;26.49;99270.78;5107435;28;20023;-62
2022/01/19 06:45:08;;;;;;;2.42;1.20;;;;;;;15.74;26.48;99278.63;5107620;28;20178;-62
2022/01/19 06:47:34;;;;;;;1.48;0.95;;;;;;;15.74;26.65;99282.16;5107582;28;20116;-62
2022/01/19 06:49:59;;;;;;;3.72;1.40;;;;;;;15.73;26.48;99259.13;5107580;28;20019;-63
2022/01/19 06:52:25;;;;;;;1.30;1.02;;;;;;;15.75;26.69;99280.31;5107499;28;20016;-62
2022/01/19 06:54:51;;;;;;;3.53;2.40;;;;;;;15.70;26.84;99275.44;5107592;28;20267;-62
2022/01/19 06:57:16;;;;;;;2.92;1.17;;;;;;;15.77;26.85;99276.50;5079859;28;20034;-62
2022/01/19 06:59:42;;;;;;;1.33;1.00;;;;;;;15.77;26.77;99263.16;5112849;28;20019;-62
2022/01/19 07:02:08;;;;;;;2.15;0.93;;;;;;;15.76;26.55;99271.31;5110112;28;20024;-62
2022/01/19 07:04:36;;;;;;;2.30;1.20;;;;;;;15.71;26.62;99261.97;5128384;28;20039;-62
2022/01/19 07:07:02;;;;;;;2.15;1.30;;;;;;;15.71;26.52;99264.63;5119803;28;20137;-61
2022/01/19 07:09:27;;;;;;;2.42;1.20;;;;;;;15.74;26.73;99279.47;5132071;28;20076;-62
2022/01/19 07:11:53;;;;;;;4.07;1.33;;;;;;;15.70;26.52;99267.44;5131903;28;20240;-61
2022/01/19 07:14:18;;;;;;;2.97;1.30;;;;;;;15.74;26.81;99258.13;5131867;28;20057;-61
2022/01/19 07:16:45;;;;;;;1.98;1.20;;;;;;;15.77;26.86;99260.50;5131875;28;20015;-61
2022/01/19 07:19:13;;;;;;;1.58;1.02;;;;;;;15.81;26.70;99258.31;5130973;27;20141;-62
2022/01/19 07:21:39;;;;;;;1.73;1.33;;;;;;;15.81;26.62;99258.31;5131662;28;20024;-62
2022/01/19 07:24:04;;;;;;;4.25;2.33;;;;;;;15.84;26.47;99258.84;5113565;28;20023;-64
2022/01/19 07:26:30;;;;;;;2.08;1.23;;;;;;;15.82;26.70;99250.16;5131660;28;20023;-64
2022/01/19 07:28:56;;;;;;;2.85;1.50;;;;;;;15.86;26.84;99253.38;5131466;28;20250;-63
2022/01/19 07:31:21;;;;;;;2.70;1.42;;;;;;;15.90;26.47;99248.56;5131278;28;20016;-64
2022/01/19 07:33:47;;;;;;;2.63;1.20;;;;;;;15.90;26.45;99237.88;5131119;28;20228;-63
2022/01/19 07:36:12;;;;;;;5.38;1.50;;;;;;;15.90;26.70;99233.34;5131385;28;20031;-64
2022/01/19 07:38:38;;;;;;;3.50;1.60;;;;;;;15.91;26.46;99227.03;5113028;28;20023;-64
2022/01/19 07:41:03;;;;;;;2.80;1.20;;;;;;;15.90;26.68;99228.03;5131448;28;20035;-63
2022/01/19 07:43:29;;;;;;;2.65;1.33;;;;;;;15.92;26.79;99227.88;5131071;28;20032;-63
2022/01/19 07:45:55;;;;;;;1.70;1.30;;;;;;;15.91;26.48;99215.53;5130913;28;20149;-63
2022/01/19 07:48:20;;;;;;;2.58;1.40;;;;;;;15.89;26.68;99222.88;5131151;28;20080;-63
2022/01/19 07:50:46;;;;;;;3.08;1.40;;;;;;;15.88;26.77;99219.38;5131235;28;20024;-64
2022/01/19 07:53:11;;;;;;;3.45;1.40;;;;;;;15.89;26.54;99209.53;5130916;27;20023;-63
2022/01/19 07:55:37;;;;;;;2.97;1.33;;;;;;;15.89;26.38;99206.84;5130886;28;20179;-62
2022/01/19 07:58:02;;;;;;;2.40;1.38;;;;;;;15.89;26.39;99213.00;5130418;28;20186;-64
2022/01/19 08:00:29;;;;;;;2.55;1.55;;;;;;;15.86;26.62;99203.50;5130594;28;20023;-64
2022/01/19 08:02:55;;;;;;;4.10;1.80;;;;;;;15.85;26.67;99206.34;5130754;28;20023;-64
2022/01/19 08:05:20;;;;;;;3.92;2.13;;;;;;;15.87;26.35;99199.03;5130770;28;20083;-63
2022/01/19 08:07:45;;;;;;;2.67;1.80;;;;;;;15.84;26.42;99199.31;5118115;28;20281;-64
2022/01/19 08:10:12;;;;;;;3.95;1.85;;;;;;;15.80;26.38;99196.16;5130815;28;20178;-63
2022/01/19 08:12:37;;;;;;;3.47;1.92;;;;;;;15.80;26.19;99188.16;5130762;28;20027;-63
2022/01/19 08:15:04;;;;;;;3.63;1.90;;;;;;;15.80;26.52;99184.63;5130439;28;20040;-63
2022/01/19 08:17:30;;;;;;;3.13;1.83;;;;;;;15.78;26.08;99182.13;5130821;28;20026;-64
2022/01/19 08:19:57;;;;;;;3.33;1.73;;;;;;;15.78;26.25;99190.13;5130600;28;20019;-64
2022/01/19 08:22:23;;;;;;;2.65;1.85;;;;;;;15.74;26.23;99178.13;5130461;28;20073;-64
2022/01/19 08:24:49;;;;;;;2.78;1.70;;;;;;;15.75;26.42;99176.28;5130378;28;20033;-65
2022/01/19 08:27:16;;;;;;;3.38;1.90;;;;;;;15.73;26.44;99173.78;5130693;28;20236;-65
2022/01/19 08:29:41;;;;;;;1.98;1.77;;;;;;;15.71;26.63;99175.78;5130464;28;20140;-65
2022/01/19 08:32:08;;;;;;;2.85;1.58;;;;;;;15.69;26.39;99175.09;5120592;28;20024;-64
2022/01/19 08:34:34;;;;;;;5.50;1.58;;;;;;;15.69;26.62;99180.44;5110004;28;20039;-64
2022/01/19 08:37:01;;;;;;;2.75;1.63;;;;;;;15.70;26.42;99190.94;5109823;28;20077;-63
2022/01/19 08:39:26;;;;;;;4.32;2.17;;;;;;;15.69;26.77;99191.09;5109883;28;20047;-63
2022/01/19 08:41:53;;;;;;;2.15;1.45;;;;;;;15.73;26.59;99184.44;5109717;28;20015;-63
2022/01/19 08:44:20;;;;;;;4.13;2.15;;;;;;;15.73;26.66;99175.63;5109559;28;20024;-64
2022/01/19 08:46:46;;;;;;;3.05;1.90;;;;;;;15.72;26.53;99180.09;5109692;28;20220;-63
2022/01/19 08:49:12;;;;;;;3.38;2.17;;;;;;;15.72;26.97;99182.78;5109614;28;20024;-64
2022/01/19 08:51:38;;;;;;;2.20;1.63;;;;;;;15.74;26.60;99177.25;5109638;28;20027;-64
2022/01/19 08:54:04;;;;;;;3.85;2.10;;;;;;;15.73;26.47;99171.09;5109406;28;20024;-63
2022/01/19 08:56:30;;;;;;;3.22;1.98;;;;;;;15.74;26.54;99162.09;5109331;28;20024;-64
2022/01/19 08:58:56;;;;;;;3.15;1.80;;;;;;;15.77;26.77;99151.13;5109250;28;20102;-63
2022/01/19 09:01:22;;;;;;;3.50;2.10;;;;;;;15.82;26.70;99143.44;5127307;28;20026;-64
2022/01/19 09:03:48;;;;;;;2.78;1.80;;;;;;;15.84;26.59;99145.97;5129467;28;20030;-64
2022/01/19 09:06:13;;;;;;;2.58;1.70;;;;;;;15.85;26.40;99142.31;5122898;28;20024;-67
2022/01/19 09:08:39;;;;;;;2.78;1.90;;;;;;;15.84;26.66;99143.28;5124517;28;20023;-63
2022/01/19 09:11:06;;;;;;;5.05;2.83;;;;;;;15.83;26.86;99144.28;5129429;28;20147;-63
2022/01/19 09:13:32;;;;;;;2.65;1.80;;;;;;;15.81;26.62;99141.78;5129575;28;20019;-64
2022/01/19 09:15:58;;;;;;;4.45;1.65;;;;;;;15.83;26.77;99146.97;5129449;28;20019;-63
2022/01/19 09:18:24;;;;;;;2.90;1.92;;;;;;;15.82;26.77;99146.09;5129403;28;20023;-62
2022/01/19 09:20:49;;;;;;;3.17;2.15;;;;;;;15.80;26.77;99136.59;5129406;28;20061;-63
2022/01/19 09:23:15;;;;;;;3.88;2.08;;;;;;;15.83;26.44;99139.78;5129123;28;20035;-63
2022/01/19 09:25:40;;;;;;;5.07;2.35;;;;;;;15.86;26.88;99141.34;5129550;28;20076;-62
2022/01/19 09:28:07;;;;;;;3.55;1.85;;;;;;;15.85;26.89;99137.81;5128302;28;20164;-64
2022/01/19 09:30:34;;;;;;;3.03;1.83;;;;;;;15.85;26.60;99135.16;5129140;28;20248;-64
2022/01/19 09:33:32;;;;;;;5.03;2.28;;;;;;;15.88;26.47;99146.50;5111930;28;20016;-64
2022/01/19 09:36:29;;;;;;;4.78;2.00;;;;;;;15.89;26.97;99132.16;5105532;28;20023;-64
2022/01/19 09:38:40;;;;;;;3.03;1.52;;;;;;;15.87;26.81;99129.66;5106570;27;20090;-63
2022/01/19 09:41:07;;;;;;;2.45;1.48;;;;;;;15.92;26.83;99142.50;5127693;27;20023;-63
2022/01/19 09:43:33;;;;;;;7.00;2.58;;;;;;;15.91;26.68;99130.16;5128761;28;20042;-63
2022/01/19 09:46:00;;;;;;;11.73;2.72;;;;;;;15.95;26.91;99126.16;5128928;28;20159;-63
2022/01/19 09:48:28;;;;;;;4.13;2.22;;;;;;;15.95;27.05;99118.16;5128523;28;20068;-63
2022/01/19 09:50:56;;;;;;;3.45;1.77;;;;;;;15.94;27.02;99117.31;5128738;28;20036;-63
2022/01/19 09:53:22;;;;;;;4.07;2.28;;;;;;;15.96;26.61;99119.81;5128979;28;20086;-63
2022/01/19 09:55:48;;;;;;;5.15;2.20;;;;;;;15.97;26.80;99124.13;5128654;28;20023;-63
2022/01/19 09:58:14;;;;;;;2.95;1.40;;;;;;;15.98;26.33;99132.00;5110295;28;20038;-63
2022/01/19 10:00:40;;;;;;;6.07;2.03;;;;;;;16.02;26.66;99138.69;5121908;28;20027;-63
2022/01/19 10:03:32;;;;;;;4.20;1.75;;;;;;;16.08;26.97;99139.00;5128370;28;20167;-63
2022/01/19 10:06:08;;;;;;;5.13;2.03;;;;;;;16.10;26.95;99147.69;5119043;28;20027;-64
2022/01/19 10:08:40;;;;;;;3.47;1.90;;;;;;;16.12;26.94;99138.50;5122959;28;20129;-64
2022/01/19 10:17:02;;;;;;;4.53;2.22;;;;;;;16.19;26.56;99129.84;5128422;28;20091;-64
2022/01/19 10:19:29;;;;;;;2.42;1.75;;;;;;;16.18;26.93;99126.31;5127519;27;20012;-63
2022/01/19 10:21:59;;;;;;;5.00;2.40;;;;;;;16.21;26.77;99125.97;5128198;28;20023;-63
2022/01/19 10:24:52;;;;;;;3.20;1.90;;;;;;;16.23;26.65;99126.66;5127616;28;20015;-65
2022/01/19 10:27:29;;;;;;;3.00;1.50;;;;;;;16.22;26.70;99118.81;5119698;28;20081;-64
2022/01/19 10:30:03;;;;;;;4.57;2.28;;;;;;;16.21;26.87;99117.16;5137615;27;20023;-64
2022/01/19 10:32:41;;;;;;;2.85;2.20;;;;;;;16.21;26.66;99109.16;5135633;27;20024;-64
2022/01/19 10:35:24;;;;;;;4.88;2.15;;;;;;;16.19;26.97;99116.47;5128146;28;20023;-64
2022/01/19 10:38:27;;;;;;;4.13;2.20;;;;;;;16.19;26.90;99113.81;5128030;28;20140;-64
2022/01/19 10:40:56;;;;;;;3.42;2.00;;;;;;;16.22;27.00;99106.28;5128127;28;20007;-64
2022/01/19 10:43:27;;;;;;;5.20;2.42;;;;;;;16.22;26.58;99103.63;5127893;28;20276;-63
2022/01/19 10:45:55;;;;;;;3.92;2.38;;;;;;;16.24;26.50;99106.16;5127960;28;20051;-64
2022/01/19 10:48:38;;;;;;;4.63;2.40;;;;;;;16.24;26.64;99088.28;5127722;28;20015;-64
2022/01/19 10:51:19;;;;;;;3.90;2.55;;;;;;;16.24;27.10;99093.63;5128006;28;20023;-63
2022/01/19 10:54:05;;;;;;;5.00;2.40;;;;;;;16.24;26.51;99087.47;5127836;28;20012;-63
2022/01/19 10:56:30;;;;;;;5.45;2.53;;;;;;;16.25;26.60;99089.94;5123635;28;20342;-63
2022/01/19 10:59:12;;;;;;;4.00;2.58;;;;;;;16.24;26.94;99088.28;5107436;28;20037;-63
2022/01/19 11:01:37;;;;;;;;;;;;;;;16.20;27.47;99088.78;5127663;28;20072;-63
2022/01/19 11:04:18;;;;;;;3.72;2.30;;;;;;;16.22;26.98;99089.47;5127592;28;19911;-63
2022/01/19 11:06:44;;;;;;;3.53;2.28;;;;;;;16.24;26.81;99098.13;5115607;28;20023;-63
2022/01/19 11:09:14;;;;;;;4.05;2.50;;;;;;;16.26;27.15;99085.44;5107156;28;20028;-63
2022/01/19 11:11:40;;;;;;;2.97;2.05;;;;;;;16.26;27.25;99091.63;5107438;28;20075;-63
2022/01/19 11:14:08;;;;;;;3.60;2.05;;;;;;;16.27;26.82;99093.28;5107270;28;20079;-63
2022/01/19 11:16:33;;;;;;;2.80;2.15;;;;;;;16.29;27.04;99096.63;5107192;28;20056;-63
2022/01/19 11:18:59;;;;;;;2.92;1.98;;;;;;;16.29;27.29;99077.94;5107248;28;20037;-63
2022/01/19 11:21:30;;;;;;;4.05;2.10;;;;;;;16.32;27.13;99084.75;5112774;28;20015;-63
2022/01/19 11:24:11;;;;;;;2.40;1.73;;;;;;;16.30;27.28;99081.44;5127503;28;20068;-63
2022/01/19 11:26:38;;;;;;;4.25;2.40;;;;;;;16.30;27.31;99073.41;5127768;28;20023;-64
2022/01/19 11:29:22;;;;;;;4.22;1.90;;;;;;;16.32;27.37;99076.75;5109495;28;20023;-63
2022/01/19 11:31:50;;;;;;;2.97;2.00;;;;;;;16.30;27.14;99071.59;5120539;28;20016;-63
2022/01/19 11:34:39;;;;;;;3.90;2.10;;;;;;;16.30;27.07;99068.94;5107065;28;20027;-63
2022/01/19 11:37:05;;;;;;;4.20;2.15;;;;;;;16.14;27.57;99056.41;5106994;28;20028;-62
2022/01/19 11:39:30;;;;;;;3.40;1.83;;;;;;;15.71;28.34;99056.59;5107040;28;20247;-63
2022/01/19 11:41:58;;;;;;;2.97;1.80;;;;;;;15.25;29.12;99056.19;5106821;28;20026;-63
2022/01/19 11:44:33;;;;;;;4.25;2.30;;;;;;;14.96;29.36;99065.44;5106690;28;20229;-62
2022/01/19 11:47:16;;;;;;;11.43;2.17;;;;;;;14.70;29.69;99055.69;5118280;28;20187;-63
2022/01/19 11:49:48;;;;;;;5.82;2.50;;;;;;;14.55;29.83;99059.91;5127434;28;20053;-62
2022/01/19 11:52:19;;;;;;;;;;;;;;;14.28;29.66;99053.72;5130867;28;20031;-62
2022/01/19 11:54:44;;;;;;;4.47;1.90;;;;;;;14.18;29.89;99054.69;5130799;27;19944;-63
2022/01/19 11:57:19;;;;;;;4.28;2.45;;;;;;;14.11;30.02;99053.66;5121032;28;20035;-62
2022/01/19 11:59:47;;;;;;;3.92;1.88;;;;;;;14.03;29.92;99051.75;5116447;28;20023;-64
2022/01/19 12:02:26;;;;;;;5.32;2.28;;;;;;;13.95;29.93;99046.38;5130888;28;20019;-63
2022/01/19 12:05:12;;;;;;;3.95;2.40;;;;;;;13.88;30.07;99045.34;5130670;28;20095;-64
2022/01/19 12:07:41;;;;;;;2.95;1.85;;;;;;;13.79;29.71;99049.75;5129676;28;20042;-63
2022/01/19 12:10:30;;;;;;;6.45;2.38;;;;;;;13.74;29.92;99038.72;5130855;28;20019;-63
2022/01/19 12:13:54;;;;;;;4.72;1.98;;;;;;;13.67;30.02;99035.84;5110124;28;20012;-63
2022/01/19 12:19:15;;;;;;;4.93;2.25;;;;;;;13.56;30.10;99033.44;5110197;28;20008;-64
2022/01/19 12:21:45;;;;;;;9.07;2.47;;;;;;;13.53;30.10;99036.38;5110197;28;20087;-64
2022/01/19 12:24:15;;;;;;;4.63;2.10;;;;;;;13.52;29.62;99032.91;5109952;28;20016;-64
2022/01/19 12:27:22;;;;;;;4.93;1.98;;;;;;;13.51;29.87;99033.03;5110064;28;20026;-64
2022/01/19 12:29:51;;;;;;;5.20;2.70;;;;;;;13.43;29.79;99029.34;5110311;28;20011;-64
2022/01/19 12:32:16;;;;;;;3.60;2.15;;;;;;;13.40;29.86;99026.97;5120555;28;20011;-64
2022/01/19 12:34:49;;;;;;;3.92;2.13;;;;;;;13.37;29.97;99018.44;5129800;28;20012;-65
2022/01/19 12:37:26;;;;;;;6.13;2.58;;;;;;;13.34;29.98;99018.75;5130190;28;20034;-61
2022/01/19 12:39:53;;;;;;;2.90;1.65;;;;;;;13.33;30.00;99014.41;5130309;28;20223;-62
2022/01/19 12:42:25;;;;;;;4.25;2.13;;;;;;;13.34;30.16;99019.56;5130029;28;20132;-61
2022/01/19 12:44:56;;;;;;;3.60;2.00;;;;;;;13.30;29.72;99004.94;5128217;28;20031;-62
2022/01/19 12:47:24;;;;;;;5.25;1.70;;;;;;;13.26;29.75;99001.72;5109563;28;20014;-62
2022/01/19 12:49:51;;;;;;;4.30;2.08;;;;;;;13.26;29.66;99011.53;5113685;28;20019;-61
2022/01/19 12:52:22;;;;;;;6.15;2.05;;;;;;;13.25;29.66;99020.50;5128427;28;20148;-63
2022/01/19 12:54:48;;;;;;;3.78;2.22;;;;;;;13.19;29.92;99013.97;5109522;28;20087;-63
2022/01/19 12:57:17;;;;;;;3.15;2.10;;;;;;;13.15;29.56;99012.59;5109142;28;20024;-63
2022/01/19 12:59:45;;;;;;;5.55;2.38;;;;;;;13.12;30.00;99003.09;5113589;28;20020;-62
2022/01/19 13:02:13;;;;;;;6.20;2.13;;;;;;;13.10;29.90;99002.41;5128112;28;20044;-63
2022/01/19 13:04:42;;;;;;;5.93;2.15;;;;;;;13.09;29.70;99002.53;5128165;28;20022;-63
2022/01/19 13:07:27;;;;;;;3.03;1.70;;;;;;;13.08;29.65;99001.72;5113306;28;20020;-64
2022/01/19 13:13:13;;;;;;;4.07;2.10;;;;;;;12.95;30.28;98990.63;5109008;28;20069;-63
2022/01/19 13:15:54;;;;;;;2.70;1.90;;;;;;;12.94;29.93;98987.13;5118621;28;20090;-63
2022/01/19 13:18:33;;;;;;;3.00;1.80;;;;;;;12.91;29.94;98973.31;5129330;28;20268;-64